Time;durP1;ratioP1;P1;durP2;ratioP2;P2;SDS_P1;SDS_P2;PMS_P1;PMS_P2;Temp;Humidity;BMP_temperature;BMP_pressure;BME280_temperature;BME280_humidity;BME280_pressure;Samples;Min_cycle;Max_cycle;Signal;HPM_P1;HPM_P2
2023/05/08 04:13:19;;;;;;;6.78;3.78;;;;;;;9.10;100.00;100866.84;5582722;31;781261;-89
2023/05/08 04:16:31;;;;;;;5.70;3.80;;;;;;;9.16;100.00;100861.31;5587366;31;34343;-86
2023/05/08 04:19:48;;;;;;;5.22;4.10;;;;;;;9.24;100.00;100866.34;5587559;32;34585;-85
2023/05/08 04:22:58;;;;;;;3.97;3.58;;;;;;;9.31;100.00;100874.94;5587989;32;35070;-85
2023/05/08 04:26:07;;;;;;;3.80;3.40;;;;;;;9.43;100.00;100871.84;5588061;31;34080;-86
2023/05/08 04:29:14;;;;;;;3.40;3.10;;;;;;;9.50;100.00;100876.91;5588154;31;34072;-86
2023/05/08 04:32:23;;;;;;;3.33;2.97;;;;;;;9.49;98.95;100886.62;5587802;31;33976;-86
2023/05/08 04:35:33;;;;;;;3.27;3.00;;;;;;;9.52;95.09;100893.59;5588385;31;33761;-86
2023/05/08 04:38:40;;;;;;;4.35;3.37;;;;;;;9.48;96.30;100899.91;5587740;31;34564;-83
2023/05/08 04:41:51;;;;;;;2.92;2.67;;;;;;;9.51;93.42;100894.53;5591105;32;33459;-85
2023/05/08 04:44:57;;;;;;;5.12;3.20;;;;;;;9.47;92.88;100903.50;5598414;31;35031;-86
2023/05/08 04:48:05;;;;;;;3.80;3.00;;;;;;;9.60;93.66;100907.41;5592268;32;34251;-86
2023/05/08 04:51:13;;;;;;;3.15;2.85;;;;;;;9.67;92.61;100910.72;5585413;32;33830;-85
2023/05/08 04:54:19;;;;;;;2.97;2.67;;;;;;;9.57;93.88;100918.13;5583527;31;34168;-85
2023/05/08 04:57:27;;;;;;;3.47;2.70;;;;;;;9.57;94.32;100926.09;5587100;31;34639;-85
2023/05/08 05:00:36;;;;;;;3.20;2.90;;;;;;;9.65;93.32;100915.22;5587875;31;34633;-89
2023/05/08 05:03:45;;;;;;;3.62;3.10;;;;;;;9.67;93.82;100929.25;5588097;32;34160;-86
2023/05/08 05:06:52;;;;;;;4.18;2.75;;;;;;;9.74;92.54;100932.53;5587674;32;35015;-86
2023/05/08 05:10:00;;;;;;;5.32;2.80;;;;;;;9.75;90.37;100929.81;5591203;31;33802;-86
2023/05/08 05:13:09;;;;;;;3.00;2.70;;;;;;;9.81;89.87;100926.94;5584380;31;33596;-87
2023/05/08 05:16:17;;;;;;;2.80;2.30;;;;;;;9.81;89.44;100937.53;5587238;31;34018;-86
2023/05/08 05:19:28;;;;;;;2.65;2.45;;;;;;;9.80;86.92;100929.63;5591596;31;34048;-86
2023/05/08 05:22:36;;;;;;;2.92;2.70;;;;;;;9.79;87.44;100943.81;5586474;31;34100;-86
2023/05/08 05:25:45;;;;;;;2.75;2.55;;;;;;;9.82;87.87;100933.97;5577813;32;36323;-85
2023/05/08 05:28:53;;;;;;;2.65;2.40;;;;;;;10.07;87.58;100943.62;5571858;32;33971;-86
2023/05/08 05:32:00;;;;;;;2.92;2.42;;;;;;;10.08;87.05;100949.81;5572053;32;34685;-86
2023/05/08 05:35:09;;;;;;;3.25;2.60;;;;;;;10.27;86.99;100955.28;5573014;32;33957;-86
2023/05/08 05:38:32;;;;;;;2.78;2.58;;;;;;;10.24;85.29;100948.28;5569197;32;33795;-86
2023/05/08 05:41:43;;;;;;;2.55;2.35;;;;;;;10.34;85.66;100946.13;5571114;32;33853;-86
2023/05/08 05:44:50;;;;;;;5.07;2.50;;;;;;;10.33;86.17;100962.09;5555644;32;34095;-86
2023/05/08 05:47:55;;;;;;;2.30;2.10;;;;;;;10.24;84.47;100963.31;5554025;31;33902;-86
2023/05/08 05:51:01;;;;;;;2.58;2.20;;;;;;;10.19;84.35;100963.50;5570240;31;34001;-86
2023/05/08 05:54:07;;;;;;;2.35;2.15;;;;;;;10.23;82.17;100954.53;5556034;31;34097;-86
2023/05/08 05:57:14;;;;;;;6.93;2.40;;;;;;;10.27;81.39;100962.34;5570947;31;33413;-86
2023/05/08 06:00:22;;;;;;;3.33;2.22;;;;;;;10.27;81.39;100965.87;5567114;31;34007;-90
2023/05/08 06:03:29;;;;;;;2.58;2.17;;;;;;;10.33;81.25;100976.25;5566731;31;34434;-87
2023/05/08 06:06:37;;;;;;;4.03;2.25;;;;;;;10.46;80.66;100963.38;5555944;32;34217;-86
2023/05/08 06:09:40;;;;;;;2.12;1.92;;;;;;;10.44;80.23;100964.34;5557678;32;33697;-84
2023/05/08 06:12:45;;;;;;;2.72;2.22;;;;;;;10.72;79.05;100963.25;5558301;32;34878;-85
2023/05/08 06:15:49;;;;;;;1.98;1.87;;;;;;;10.84;79.19;100962.75;5576655;32;33926;-84
2023/05/08 06:18:54;;;;;;;2.75;2.10;;;;;;;11.00;77.26;100962.09;5576620;32;34116;-85
2023/05/08 06:21:59;;;;;;;4.82;2.30;;;;;;;11.14;76.69;100964.16;5567306;31;34028;-85
2023/05/08 06:25:05;;;;;;;1.87;1.77;;;;;;;11.18;76.35;100963.13;5564110;31;33104;-85
2023/05/08 06:28:10;;;;;;;2.28;1.83;;;;;;;11.24;75.85;100965.50;5574079;31;34852;-85
2023/05/08 06:31:17;;;;;;;2.20;2.00;;;;;;;11.39;75.21;100966.63;5558818;31;36194;-85
2023/05/08 06:34:22;;;;;;;2.00;1.80;;;;;;;11.61;73.87;100971.00;5555653;31;33727;-85
2023/05/08 06:37:26;;;;;;;3.12;2.00;;;;;;;11.81;74.26;100974.53;5571120;31;35014;-85
2023/05/08 06:40:32;;;;;;;2.05;1.90;;;;;;;11.96;73.80;100975.63;5566231;31;33862;-85
2023/05/08 06:43:36;;;;;;;3.72;2.20;;;;;;;11.91;72.77;100970.53;5562447;31;33730;-85
2023/05/08 06:46:39;;;;;;;2.37;2.10;;;;;;;12.19;72.42;100973.75;5565584;31;33817;-84
2023/05/08 06:49:42;;;;;;;2.10;2.00;;;;;;;12.50;71.51;100967.84;5568703;31;33898;-85
2023/05/08 06:52:51;;;;;;;2.67;1.87;;;;;;;13.55;68.75;100976.84;5569616;31;33214;-85
2023/05/08 06:55:57;;;;;;;3.85;2.10;;;;;;;14.31;64.73;100981.69;5558775;31;34425;-85
2023/05/08 06:59:05;;;;;;;2.12;1.67;;;;;;;13.78;64.29;100982.75;5560177;31;34682;-85
2023/05/08 07:02:14;;;;;;;2.50;2.30;;;;;;;14.33;64.11;100990.50;5563272;31;33999;-84
2023/05/08 07:05:20;;;;;;;1.87;1.77;;;;;;;14.03;63.76;100992.09;5564805;32;34196;-84
2023/05/08 07:08:25;;;;;;;4.53;2.00;;;;;;;14.08;65.26;100990.03;5562655;31;35008;-85
2023/05/08 07:11:31;;;;;;;2.42;2.00;;;;;;;13.79;65.69;100991.62;5561304;31;33789;-84
2023/05/08 07:14:37;;;;;;;5.62;1.85;;;;;;;14.13;65.33;100989.78;5560000;31;33963;-84
2023/05/08 07:17:44;;;;;;;6.50;2.08;;;;;;;14.66;63.61;100982.37;5560681;31;34952;-84
2023/05/08 07:20:47;;;;;;;4.03;1.80;;;;;;;15.13;62.90;100979.72;5560895;31;34064;-84
2023/05/08 07:23:52;;;;;;;1.60;1.50;;;;;;;15.50;57.72;100987.34;5559428;31;33188;-82
2023/05/08 07:26:58;;;;;;;2.97;1.80;;;;;;;15.47;56.75;100984.84;5569560;31;32726;-86
2023/05/08 07:30:03;;;;;;;1.87;1.70;;;;;;;15.61;55.82;100981.34;5570864;31;33930;-83
2023/05/08 07:33:07;;;;;;;1.60;1.50;;;;;;;15.72;55.18;100981.53;5567321;31;33499;-85
2023/05/08 07:36:13;;;;;;;1.27;1.17;;;;;;;15.67;54.45;100978.28;5559405;31;34001;-84
2023/05/08 07:39:21;;;;;;;1.80;1.20;;;;;;;15.44;55.36;100987.72;5572272;31;34702;-84
2023/05/08 07:42:25;;;;;;;2.65;1.37;;;;;;;14.84;55.08;100987.66;5578795;32;34782;-85
2023/05/08 07:45:29;;;;;;;1.30;1.25;;;;;;;15.28;58.58;100987.78;5564915;32;33862;-85
2023/05/08 07:48:32;;;;;;;2.35;1.40;;;;;;;15.42;53.47;100990.47;5560760;32;34059;-85
2023/05/08 07:51:39;;;;;;;4.72;1.23;;;;;;;16.16;53.63;100990.41;5563661;32;33904;-82
2023/05/08 07:54:43;;;;;;;5.72;1.48;;;;;;;16.68;52.51;100995.16;5571186;32;33753;-83
2023/05/08 07:57:50;;;;;;;1.87;1.50;;;;;;;17.81;52.69;100994.78;5570692;32;33949;-83
2023/05/08 08:00:58;;;;;;;5.93;1.42;;;;;;;18.06;52.19;100998.41;5563879;31;33582;-86
2023/05/08 08:04:07;;;;;;;5.12;1.60;;;;;;;18.57;48.14;101000.09;5571895;31;33941;-82
2023/05/08 08:07:14;;;;;;;5.40;1.87;;;;;;;19.26;48.08;100986.94;5574463;31;33817;-82
2023/05/08 08:10:21;;;;;;;2.37;1.33;;;;;;;18.93;50.23;100989.41;5575986;31;33808;-82
2023/05/08 08:13:25;;;;;;;1.45;1.35;;;;;;;19.24;44.25;100994.28;5562589;31;34032;-83
2023/05/08 08:16:31;;;;;;;3.53;1.60;;;;;;;19.68;42.68;100994.50;5563505;31;34254;-83
2023/05/08 08:19:39;;;;;;;4.12;1.60;;;;;;;20.31;44.23;100985.94;5550567;31;34042;-84
2023/05/08 08:22:48;;;;;;;4.53;1.50;;;;;;;20.65;42.33;100986.81;5562126;31;33768;-83
2023/05/08 08:25:54;;;;;;;1.40;1.30;;;;;;;20.60;39.84;100989.91;5566427;31;33954;-82
2023/05/08 08:29:03;;;;;;;1.85;1.10;;;;;;;20.35;42.17;100989.25;5557941;31;33927;-81
2023/05/08 08:32:10;;;;;;;2.90;1.67;;;;;;;20.04;39.96;100978.25;5569670;31;33236;-82
2023/05/08 08:35:18;;;;;;;4.37;1.40;;;;;;;21.05;41.09;100985.34;5564380;31;33947;-82
2023/05/08 08:38:24;;;;;;;2.83;1.23;;;;;;;21.08;37.53;100991.34;5559425;31;33234;-83
2023/05/08 08:41:33;;;;;;;2.12;1.17;;;;;;;21.43;38.82;100985.75;5559986;31;33666;-82
2023/05/08 08:44:41;;;;;;;2.25;1.15;;;;;;;21.58;36.20;100980.88;5563872;31;33775;-86
2023/05/08 08:47:51;;;;;;;1.10;0.82;;;;;;;22.00;35.76;100988.03;5570298;31;34291;-87
2023/05/08 08:51:02;;;;;;;2.83;0.80;;;;;;;21.99;33.81;100984.50;5567256;31;33920;-83
2023/05/08 08:54:12;;;;;;;3.70;0.98;;;;;;;22.19;34.13;100981.88;5563442;31;34134;-83
2023/05/08 08:57:20;;;;;;;2.35;1.08;;;;;;;21.97;34.45;100981.06;5566872;31;34565;-83
2023/05/08 09:00:31;;;;;;;1.48;0.60;;;;;;;21.91;33.96;100987.88;5563582;31;34624;-85
2023/05/08 09:03:38;;;;;;;0.80;0.80;;;;;;;21.26;34.11;100974.56;5567768;31;34321;-85
2023/05/08 09:06:44;;;;;;;4.87;0.80;;;;;;;20.82;34.56;100975.50;5573000;31;33878;-84
2023/05/08 09:09:50;;;;;;;1.90;0.70;;;;;;;22.60;33.42;100965.59;5580469;31;33636;-85
2023/05/08 09:12:53;;;;;;;1.40;0.90;;;;;;;22.98;31.08;100965.75;5567352;31;33690;-84
2023/05/08 09:15:58;;;;;;;3.47;0.90;;;;;;;22.82;30.93;100967.19;5572291;31;34367;-84
2023/05/08 09:19:04;;;;;;;3.95;0.65;;;;;;;24.04;31.17;100963.91;5563157;31;33996;-84
2023/05/08 09:22:11;;;;;;;0.65;0.60;;;;;;;23.00;29.87;100974.56;5564155;32;34069;-83
2023/05/08 09:25:19;;;;;;;1.42;0.62;;;;;;;23.10;30.07;100967.31;5552113;32;34348;-83
2023/05/08 09:28:25;;;;;;;9.88;0.75;;;;;;;24.15;30.12;100966.44;5552135;32;33995;-83
2023/05/08 09:31:35;;;;;;;2.10;0.80;;;;;;;24.39;30.21;100964.16;5557279;32;34147;-84
2023/05/08 09:34:41;;;;;;;;;;;;;;;23.15;31.02;100967.72;5565262;31;33755;-83
2023/05/08 09:37:46;;;;;;;3.08;0.90;;;;;;;23.28;30.53;100969.28;5579378;31;34545;-84
2023/05/08 09:41:14;;;;;;;2.33;0.65;;;;;;;23.95;30.07;100962.94;5565129;31;33713;-84
2023/05/08 09:44:19;;;;;;;0.88;0.62;;;;;;;24.50;28.61;100961.22;5553332;32;33716;-83
2023/05/08 09:47:24;;;;;;;0.88;0.57;;;;;;;24.94;28.30;100954.19;5587802;31;33818;-84
2023/05/08 09:50:28;;;;;;;1.45;0.70;;;;;;;26.83;26.72;100954.34;5592274;31;34351;-87
2023/05/08 09:53:31;;;;;;;0.60;0.60;;;;;;;27.44;24.89;100963.00;5591246;31;34247;-89
2023/05/08 09:56:39;;;;;;;1.25;0.80;;;;;;;28.06;24.43;100962.47;5592575;31;34620;-90
2023/05/08 09:59:42;;;;;;;3.37;1.10;;;;;;;26.37;25.12;100963.81;5592563;31;33950;-85
2023/05/08 10:03:00;;;;;;;1.90;0.90;;;;;;;25.08;28.67;100955.50;5575172;31;33791;-86
2023/05/08 10:06:15;;;;;;;1.12;0.88;;;;;;;24.49;28.65;100949.50;5574819;31;33630;-85
2023/05/08 10:09:21;;;;;;;0.77;0.77;;;;;;;24.77;28.10;100945.87;5574890;31;33844;-85
2023/05/08 10:12:26;;;;;;;1.15;0.77;;;;;;;24.44;28.80;100942.88;5565924;31;34459;-84
2023/05/08 10:15:32;;;;;;;0.90;0.85;;;;;;;23.22;29.71;100942.78;5574657;31;34336;-84
2023/05/08 10:18:45;;;;;;;0.80;0.80;;;;;;;24.44;28.71;100941.00;5571252;31;34645;-84
2023/05/08 10:21:54;;;;;;;0.57;0.57;;;;;;;24.09;28.77;100934.53;5577263;31;33855;-84
2023/05/08 10:25:02;;;;;;;1.67;0.68;;;;;;;24.85;27.99;100935.13;5587464;31;33697;-84
2023/05/08 10:28:31;;;;;;;2.33;1.45;;;;;;;25.16;27.28;100922.97;5563389;31;34406;-84
2023/05/08 10:31:42;;;;;;;1.45;0.90;;;;;;;27.34;25.11;100928.81;5573581;31;33543;-84
2023/05/08 10:34:59;;;;;;;1.00;0.60;;;;;;;28.49;23.46;100927.47;5577560;31;34830;-85
2023/05/08 10:38:10;;;;;;;1.50;0.60;;;;;;;27.32;23.72;100928.97;5594214;31;33748;-84
2023/05/08 10:41:17;;;;;;;3.25;0.75;;;;;;;25.64;25.27;100933.47;5585802;31;32926;-88
2023/05/08 10:44:29;;;;;;;0.60;0.60;;;;;;;26.01;25.13;100917.81;5574184;31;34417;-90
2023/05/08 10:48:11;;;;;;;1.48;0.75;;;;;;;25.64;25.26;100912.56;5566888;31;34470;-85
2023/05/08 10:51:26;;;;;;;2.35;0.70;;;;;;;23.91;27.87;100907.34;5562309;31;34166;-85
2023/05/08 10:55:05;;;;;;;4.07;0.82;;;;;;;24.59;25.98;100916.91;5568303;31;34106;-85
2023/05/08 10:58:16;;;;;;;4.85;0.93;;;;;;;24.27;26.55;100904.75;5570822;31;33904;-85
2023/05/08 11:01:20;;;;;;;2.08;0.80;;;;;;;23.45;28.58;100897.31;5568827;31;34424;-85
2023/05/08 11:04:23;;;;;;;1.00;0.90;;;;;;;22.98;28.75;100908.97;5564129;31;33016;-86
2023/05/08 11:07:53;;;;;;;0.80;0.80;;;;;;;22.93;28.41;100903.12;5567616;31;32846;-86
2023/05/08 11:11:06;;;;;;;0.82;0.82;;;;;;;24.80;26.86;100893.16;5559072;31;34642;-86
2023/05/08 11:14:13;;;;;;;1.87;0.75;;;;;;;23.89;27.47;100902.09;5581355;31;34502;-90
2023/05/08 11:17:23;;;;;;;1.42;0.90;;;;;;;23.63;28.05;100891.97;5575398;31;34515;-91
2023/05/08 11:20:38;;;;;;;0.80;0.80;;;;;;;22.40;28.76;100887.19;5566658;31;33190;-85
2023/05/08 11:23:41;;;;;;;1.00;0.70;;;;;;;22.52;29.59;100889.78;5568499;31;33671;-85
2023/05/08 11:26:48;;;;;;;6.30;0.70;;;;;;;22.27;30.09;100887.44;5563546;31;34234;-86
2023/05/08 11:30:19;;;;;;;2.12;0.60;;;;;;;22.16;30.06;100887.56;5563953;32;33191;-84
2023/05/08 11:33:29;;;;;;;1.75;0.55;;;;;;;22.19;30.02;100884.59;5559243;32;34636;-83
2023/05/08 11:36:35;;;;;;;;;;;;;;;21.20;31.30;100889.62;5557930;32;33320;-85
2023/05/08 11:39:39;;;;;;;0.60;0.60;;;;;;;21.95;31.74;100880.44;5557014;32;34565;-84
2023/05/08 11:42:44;;;;;;;0.60;0.60;;;;;;;22.41;30.00;100875.38;5556446;32;34826;-84
2023/05/08 11:45:48;;;;;;;1.70;0.90;;;;;;;21.70;31.19;100882.66;5568934;31;33908;-84
2023/05/08 11:49:00;;;;;;;0.73;0.73;;;;;;;21.52;32.99;100880.56;5574335;32;33946;-84
2023/05/08 11:52:05;;;;;;;0.85;0.73;;;;;;;21.97;33.10;100874.91;5557406;32;35203;-84
2023/05/08 11:55:11;;;;;;;1.15;0.50;;;;;;;21.53;32.77;100884.13;5559786;32;34871;-84
2023/05/08 11:58:15;;;;;;;1.87;0.80;;;;;;;20.91;33.51;100890.31;5574654;32;34615;-85
2023/05/08 12:01:21;;;;;;;1.05;0.62;;;;;;;21.35;33.29;100873.09;5561780;32;35081;-84
2023/05/08 12:04:25;;;;;;;4.43;0.73;;;;;;;20.80;33.04;100876.84;5556424;31;33874;-85
2023/05/08 12:07:29;;;;;;;0.57;0.57;;;;;;;21.12;33.73;100878.66;5566461;31;33574;-86
2023/05/08 12:10:45;;;;;;;1.85;0.65;;;;;;;21.13;33.13;100873.12;5561867;31;33638;-85
2023/05/08 12:13:50;;;;;;;0.75;0.60;;;;;;;21.06;32.89;100871.94;5577813;31;33863;-85
2023/05/08 12:16:55;;;;;;;1.98;0.80;;;;;;;21.21;32.97;100864.37;5576790;31;32924;-90
2023/05/08 12:20:08;;;;;;;0.68;0.55;;;;;;;20.59;33.52;100873.19;5572239;31;34573;-89
2023/05/08 12:23:13;;;;;;;0.73;0.60;;;;;;;20.69;32.21;100873.25;5565163;31;33648;-85
2023/05/08 12:26:17;;;;;;;0.90;0.70;;;;;;;20.65;32.49;100871.78;5563156;31;33799;-85
2023/05/08 12:29:21;;;;;;;0.62;0.62;;;;;;;20.28;33.49;100874.88;5572527;31;34043;-85
2023/05/08 12:32:25;;;;;;;0.70;0.70;;;;;;;20.42;33.41;100871.06;5565250;31;34572;-84
2023/05/08 12:35:32;;;;;;;1.23;0.68;;;;;;;20.22;32.22;100867.31;5565929;31;34166;-83
2023/05/08 12:38:36;;;;;;;0.70;0.70;;;;;;;19.90;31.95;100867.13;5564822;31;34067;-84
2023/05/08 12:41:48;;;;;;;0.70;0.62;;;;;;;20.00;32.10;100882.53;5569403;32;34023;-84
2023/05/08 12:44:52;;;;;;;0.77;0.68;;;;;;;19.97;31.76;100874.72;5562260;32;33956;-85
2023/05/08 12:48:02;;;;;;;1.15;0.70;;;;;;;20.54;32.00;100870.03;5578588;31;34095;-84
2023/05/08 12:51:07;;;;;;;0.98;0.75;;;;;;;20.22;31.55;100880.78;5577748;31;33767;-84
2023/05/08 12:54:11;;;;;;;0.70;0.70;;;;;;;19.81;31.30;100878.63;5567762;32;34349;-83
2023/05/08 12:57:20;;;;;;;3.08;0.98;;;;;;;19.32;31.91;100878.91;5570336;32;34064;-83
2023/05/08 13:00:24;;;;;;;3.22;0.90;;;;;;;19.41;32.96;100877.31;5563112;31;33735;-84
2023/05/08 13:03:32;;;;;;;1.45;1.25;;;;;;;20.02;33.64;100881.44;5562627;31;34026;-84
2023/05/08 13:06:41;;;;;;;;;;;;;;;19.88;32.46;100879.00;5577864;31;34772;-84
2023/05/08 13:10:02;;;;;;;1.10;1.00;;;;;;;19.84;32.51;100874.84;5571143;31;34297;-83
2023/05/08 13:13:07;;;;;;;0.90;0.90;;;;;;;19.82;32.26;100874.97;5586636;31;33728;-84
2023/05/08 13:16:12;;;;;;;1.10;0.93;;;;;;;19.65;32.42;100881.72;5580311;31;34192;-84
2023/05/08 13:19:20;;;;;;;1.48;1.00;;;;;;;19.85;33.18;100879.22;5570884;31;33745;-84
2023/05/08 13:22:53;;;;;;;1.83;1.35;;;;;;;20.03;31.52;100876.91;5572673;31;34072;-85
2023/05/08 13:26:00;;;;;;;1.48;1.20;;;;;;;19.65;32.02;100889.78;5576571;31;33993;-85
2023/05/08 13:29:06;;;;;;;1.17;0.82;;;;;;;19.34;32.03;100882.34;5578599;31;34819;-84
2023/05/08 13:32:13;;;;;;;1.73;1.00;;;;;;;19.28;31.87;100882.81;5578673;31;33659;-85
2023/05/08 13:35:20;;;;;;;1.50;1.25;;;;;;;19.29;31.83;100889.03;5585918;31;34996;-84
2023/05/08 13:38:25;;;;;;;2.72;1.00;;;;;;;18.99;32.61;100891.28;5572685;31;35263;-84
2023/05/08 13:41:31;;;;;;;2.67;1.70;;;;;;;19.11;32.14;100893.06;5572122;31;34952;-86
2023/05/08 13:44:39;;;;;;;1.40;1.05;;;;;;;19.32;32.35;100887.00;5588886;31;34127;-85
2023/05/08 13:47:47;;;;;;;1.85;0.88;;;;;;;19.18;32.64;100881.81;5593164;31;34070;-84
2023/05/08 13:50:54;;;;;;;1.08;1.08;;;;;;;19.12;32.30;100880.47;5587852;31;34180;-85
2023/05/08 13:53:57;;;;;;;1.27;0.90;;;;;;;19.25;29.33;100894.69;5571290;31;33634;-85
2023/05/08 13:57:02;;;;;;;1.50;1.05;;;;;;;19.08;27.64;100887.06;5570210;31;34074;-86
2023/05/08 14:00:12;;;;;;;1.87;1.17;;;;;;;18.90;28.92;100881.25;5572608;32;33561;-85
2023/05/08 14:03:18;;;;;;;1.85;1.00;;;;;;;18.97;30.03;100879.81;5571324;32;34492;-86
2023/05/08 14:06:22;;;;;;;2.12;0.90;;;;;;;18.88;29.74;100881.37;5560324;32;32205;-86
2023/05/08 14:09:29;;;;;;;6.80;1.15;;;;;;;19.06;30.06;100873.72;5552347;32;34845;-86
2023/05/08 14:12:37;;;;;;;1.20;1.10;;;;;;;18.77;29.82;100884.03;5559055;32;33502;-85
2023/05/08 14:15:46;;;;;;;2.33;1.00;;;;;;;18.85;29.64;100886.97;5569648;32;35311;-85
2023/05/08 14:18:54;;;;;;;1.05;0.98;;;;;;;18.84;29.66;100879.88;5569735;32;34454;-86
2023/05/08 14:22:02;;;;;;;1.05;0.90;;;;;;;18.86;28.67;100884.19;5574557;32;34151;-86
2023/05/08 14:25:08;;;;;;;1.30;1.00;;;;;;;18.69;28.86;100879.22;5571168;32;34436;-86
2023/05/08 14:28:18;;;;;;;1.12;1.00;;;;;;;18.76;29.72;100875.09;5570644;32;34429;-87
2023/05/08 14:31:27;;;;;;;1.73;1.08;;;;;;;18.63;28.81;100887.75;5568825;32;34240;-89
2023/05/08 14:34:32;;;;;;;1.75;0.80;;;;;;;18.76;28.58;100885.84;5569560;32;34037;-91
2023/05/08 14:37:40;;;;;;;0.93;0.80;;;;;;;18.75;28.33;100897.56;5568636;32;33771;-86
2023/05/08 14:40:53;;;;;;;2.97;1.20;;;;;;;18.67;28.28;100898.19;5568405;32;33975;-87
2023/05/08 14:44:02;;;;;;;1.67;0.90;;;;;;;18.73;28.31;100899.53;5568514;32;33806;-86
2023/05/08 14:47:09;;;;;;;1.30;0.98;;;;;;;18.41;27.97;100892.09;5569799;32;34410;-86
2023/05/08 14:50:22;;;;;;;1.33;0.80;;;;;;;18.57;27.93;100897.16;5570415;32;33845;-86
2023/05/08 14:53:28;;;;;;;4.30;0.90;;;;;;;18.61;27.10;100900.47;5568308;32;33760;-86
2023/05/08 14:56:37;;;;;;;2.17;0.80;;;;;;;18.53;24.89;100896.53;5567611;32;33887;-86
2023/05/08 15:00:06;;;;;;;3.08;0.82;;;;;;;18.50;25.35;100899.44;5568209;32;34453;-86
2023/05/08 15:03:16;;;;;;;1.08;0.95;;;;;;;18.45;24.29;100898.91;5568179;32;33929;-87
2023/05/08 15:06:25;;;;;;;3.58;0.93;;;;;;;18.43;25.44;100903.56;5571795;31;33962;-86
2023/05/08 15:09:31;;;;;;;2.87;1.00;;;;;;;18.29;26.89;100894.72;5573134;31;32487;-85
2023/05/08 15:12:36;;;;;;;4.95;1.15;;;;;;;18.27;26.33;100902.03;5570607;31;34531;-86
2023/05/08 15:15:46;;;;;;;2.12;1.02;;;;;;;18.33;26.09;100900.72;5568198;32;34297;-86
2023/05/08 15:18:55;;;;;;;0.90;0.90;;;;;;;18.36;25.89;100888.88;5568406;32;34506;-86
2023/05/08 15:22:03;;;;;;;1.00;1.00;;;;;;;18.40;26.25;100898.44;5570170;32;33500;-86
2023/05/08 15:25:11;;;;;;;1.30;0.90;;;;;;;18.51;25.24;100895.78;5574684;32;34120;-86
2023/05/08 15:28:22;;;;;;;2.87;1.10;;;;;;;18.54;25.48;100898.25;5566175;31;35270;-90
2023/05/08 15:31:33;;;;;;;1.37;1.10;;;;;;;18.42;26.52;100888.41;5569670;32;33758;-86
2023/05/08 15:34:38;;;;;;;2.05;1.05;;;;;;;18.15;28.03;100893.03;5568656;32;34813;-86
